Terminal Aerodrome Forecast
Issued by NWS

Home | Current Version | Previous Version | Text Only | Print | Product List | Glossary On
Versions: 1 2 3 4 5 6 7 8 9 10 11 12 13 14 15 16 17 18 19 20 21 22 23 24
000
FTUS43 KGRB 181727
TAFATW
TAF
KATW 181727Z 1818/1918 22010G17KT P6SM BKN007
      TEMPO 1818/1820 SCT007
     FM182000 22010G17KT P6SM SKC
     FM182200 23008KT P6SM SKC WS015/27035KT
     FM190600 23006KT P6SM SKC
      TEMPO 1910/1914 4SM BR SCT006
     FM191600 20005KT P6SM SCT250=

USA.gov is the U.S. government's official web portal to all federal, state and local government web resources and services.